Time;durP1;ratioP1;P1;durP2;ratioP2;P2;SDS_P1;SDS_P2;PMS_P1;PMS_P2;Temp;Humidity;BMP_temperature;BMP_pressure;BME280_temperature;BME280_humidity;BME280_pressure;Samples;Min_cycle;Max_cycle;Signal;HPM_P1;HPM_P2
2022/09/16 00:01:41;;;;;;;3.88;2.00;;;;;;;15.79;100.00;99781.63;4864456;29;20210;-72
2022/09/16 00:04:08;;;;;;;5.80;1.98;;;;;;;15.81;100.00;99784.25;4867328;29;20203;-72
2022/09/16 00:06:34;;;;;;;6.13;2.30;;;;;;;15.78;100.00;99784.47;4855466;29;20240;-74
2022/09/16 00:09:01;;;;;;;3.25;2.10;;;;;;;15.71;98.10;99783.22;4867014;29;20207;-74
2022/09/16 00:11:29;;;;;;;3.83;2.17;;;;;;;15.77;98.96;99786.31;4852295;29;20207;-73
2022/09/16 00:13:57;;;;;;;4.68;2.10;;;;;;;15.81;98.25;99781.53;4876819;29;20592;-74
2022/09/16 00:16:25;;;;;;;3.65;2.00;;;;;;;15.81;97.57;99786.97;4871679;29;20231;-73
2022/09/16 00:18:55;;;;;;;5.88;2.45;;;;;;;15.82;97.72;99780.53;4870674;29;20678;-74
2022/09/16 00:21:22;;;;;;;2.80;1.92;;;;;;;15.79;97.18;99778.06;4872642;29;22280;-76
2022/09/16 00:23:49;;;;;;;3.50;1.98;;;;;;;15.74;99.08;99778.41;4872698;29;20219;-73
2022/09/16 00:26:16;;;;;;;5.57;2.67;;;;;;;15.65;97.64;99779.09;4873326;29;20239;-73
2022/09/16 00:28:42;;;;;;;4.95;2.40;;;;;;;15.73;98.24;99775.81;4877133;29;20207;-72
2022/09/16 00:31:10;;;;;;;5.97;2.30;;;;;;;15.73;97.74;99773.09;4865065;29;20211;-73
2022/09/16 00:33:37;;;;;;;2.95;2.15;;;;;;;15.75;98.04;99779.28;4862428;29;20250;-72
2022/09/16 00:36:07;;;;;;;4.68;1.70;;;;;;;15.75;98.23;99774.72;4862524;29;20224;-73
2022/09/16 00:38:34;;;;;;;5.43;1.85;;;;;;;15.67;97.90;99770.81;4853994;29;20201;-72
2022/09/16 00:41:00;;;;;;;3.13;1.77;;;;;;;15.66;100.00;99782.66;4851954;29;20204;-74
2022/09/16 00:43:27;;;;;;;2.85;1.77;;;;;;;15.63;100.00;99778.34;4870351;29;20554;-72
2022/09/16 00:45:58;;;;;;;8.45;1.70;;;;;;;15.62;100.00;99782.91;4869300;29;20223;-72
2022/09/16 00:48:31;;;;;;;4.38;1.80;;;;;;;15.54;100.00;99779.06;4865767;29;20638;-74
2022/09/16 00:51:02;;;;;;;4.65;2.40;;;;;;;15.52;100.00;99768.28;4870495;29;20196;-73
2022/09/16 00:53:33;;;;;;;5.97;2.25;;;;;;;15.49;100.00;99773.97;4877528;29;20208;-73
2022/09/16 00:56:03;;;;;;;7.55;2.50;;;;;;;15.50;100.00;99775.69;4853881;29;20236;-73
2022/09/16 00:58:37;;;;;;;8.90;2.20;;;;;;;15.51;100.00;99776.53;4868688;29;20212;-73
2022/09/16 01:01:05;;;;;;;6.18;2.10;;;;;;;15.39;100.00;99776.50;4870585;29;20211;-73
2022/09/16 01:03:38;;;;;;;7.60;2.30;;;;;;;15.46;100.00;99784.19;4875702;29;20649;-72
2022/09/16 01:06:05;;;;;;;4.18;2.72;;;;;;;15.37;98.91;99775.72;4851718;29;20238;-73
2022/09/16 01:08:32;;;;;;;4.65;2.20;;;;;;;15.34;97.82;99770.56;4872709;29;20663;-72
2022/09/16 01:10:58;;;;;;;4.25;1.90;;;;;;;15.37;97.82;99777.59;4868543;29;20214;-73
2022/09/16 01:13:25;;;;;;;3.83;1.60;;;;;;;15.34;94.60;99775.97;4866539;29;20208;-72
2022/09/16 01:15:59;;;;;;;5.07;1.70;;;;;;;15.41;93.94;99779.09;4866406;29;20226;-73
2022/09/16 01:18:34;;;;;;;2.53;1.70;;;;;;;15.37;94.66;99777.59;4859759;29;20214;-72
2022/09/16 01:21:18;;;;;;;3.65;2.05;;;;;;;15.36;94.87;99781.31;4871082;29;20204;-73
2022/09/16 01:24:21;;;;;;;2.92;1.52;;;;;;;15.33;95.73;99778.78;4865722;29;20199;-72
2022/09/16 01:27:20;;;;;;;6.10;1.90;;;;;;;15.29;94.92;99777.31;4864193;29;20245;-73
2022/09/16 01:30:23;;;;;;;3.65;1.88;;;;;;;15.33;96.56;99774.25;4859421;29;20199;-73
2022/09/16 01:33:00;;;;;;;4.32;1.63;;;;;;;15.32;95.85;99771.66;4833218;29;20207;-72
2022/09/16 01:35:44;;;;;;;2.03;1.55;;;;;;;15.16;95.97;99777.34;4820724;29;20217;-72
2022/09/16 01:38:22;;;;;;;4.57;2.40;;;;;;;15.14;98.57;99782.03;4834010;29;20580;-74
2022/09/16 01:40:55;;;;;;;2.72;1.80;;;;;;;15.23;97.44;99782.19;4821176;29;20218;-73
2022/09/16 01:43:31;;;;;;;4.95;2.15;;;;;;;15.20;96.24;99779.72;4823270;29;20219;-73
2022/09/16 01:46:02;;;;;;;2.20;1.55;;;;;;;15.24;96.25;99783.09;4831185;29;20284;-73
2022/09/16 01:48:37;;;;;;;2.60;1.30;;;;;;;15.22;95.98;99783.19;4827702;29;20214;-73
2022/09/16 01:51:11;;;;;;;4.30;1.50;;;;;;;15.17;97.08;99789.94;4838362;29;20208;-73
2022/09/16 01:53:44;;;;;;;5.18;1.92;;;;;;;15.14;96.14;99785.59;4822377;29;20199;-71
2022/09/16 01:56:20;;;;;;;5.90;3.40;;;;;;;15.19;98.08;99783.41;4821956;29;20722;-72
2022/09/16 01:58:51;;;;;;;8.32;2.42;;;;;;;15.19;97.22;99786.13;4827251;29;20675;-73
2022/09/16 02:01:25;;;;;;;2.58;1.60;;;;;;;15.22;94.54;99775.06;4812126;29;20208;-73
2022/09/16 02:03:59;;;;;;;5.40;1.50;;;;;;;15.19;97.28;99772.56;4828441;29;20308;-72
2022/09/16 02:06:30;;;;;;;3.33;1.77;;;;;;;15.15;96.66;99772.91;4830859;29;20246;-72
2022/09/16 02:09:00;;;;;;;2.50;1.60;;;;;;;15.09;95.35;99767.94;4835359;29;20234;-73
2022/09/16 02:11:26;;;;;;;4.40;1.65;;;;;;;15.05;96.69;99780.84;4859976;29;20215;-73
2022/09/16 02:13:58;;;;;;;2.65;1.30;;;;;;;15.09;95.32;99776.09;4860999;29;20211;-73
2022/09/16 02:16:34;;;;;;;7.78;4.13;;;;;;;15.08;96.78;99780.66;4865680;29;20237;-73
2022/09/16 02:19:11;;;;;;;3.78;2.05;;;;;;;15.15;95.43;99773.78;4855653;29;20206;-72
2022/09/16 02:21:41;;;;;;;6.65;1.75;;;;;;;15.19;92.01;99775.28;4859207;29;20588;-74
2022/09/16 02:24:12;;;;;;;6.75;1.50;;;;;;;15.14;93.36;99774.75;4870905;29;20206;-72
2022/09/16 02:26:48;;;;;;;4.45;1.45;;;;;;;15.12;96.37;99767.72;4865117;29;20219;-72
2022/09/16 02:29:20;;;;;;;2.65;1.60;;;;;;;15.11;97.13;99780.41;4865461;29;20207;-73
2022/09/16 02:31:48;;;;;;;3.72;1.90;;;;;;;15.10;98.17;99775.94;4872657;29;20195;-72
2022/09/16 02:34:20;;;;;;;3.13;1.23;;;;;;;15.08;98.30;99780.66;4872769;29;20211;-73
2022/09/16 02:36:52;;;;;;;3.30;1.58;;;;;;;15.09;96.39;99786.94;4873792;29;20214;-72
2022/09/16 02:39:23;;;;;;;3.28;1.30;;;;;;;15.17;97.24;99768.22;4871647;29;20619;-72
2022/09/16 02:41:50;;;;;;;3.15;1.42;;;;;;;15.17;95.83;99782.69;4864755;29;20550;-73
2022/09/16 02:44:18;;;;;;;4.07;2.20;;;;;;;15.17;94.80;99779.97;4871478;29;20298;-72
2022/09/16 02:46:54;;;;;;;3.05;1.52;;;;;;;15.15;94.61;99776.50;4854331;29;20633;-72
2022/09/16 02:49:27;;;;;;;4.07;2.13;;;;;;;15.16;95.12;99774.66;4865140;29;20229;-73
2022/09/16 02:51:59;;;;;;;11.13;2.22;;;;;;;15.19;95.63;99771.69;4869996;29;20206;-72
2022/09/16 02:54:35;;;;;;;3.25;1.55;;;;;;;15.16;97.09;99772.78;4871090;29;20225;-72
2022/09/16 02:57:03;;;;;;;4.70;1.70;;;;;;;15.10;96.36;99765.09;4864343;29;20278;-73
2022/09/16 02:59:30;;;;;;;6.00;1.60;;;;;;;15.11;97.00;99768.72;4874850;29;20218;-72
2022/09/16 03:01:58;;;;;;;4.78;1.90;;;;;;;15.01;96.64;99769.41;4865759;29;20210;-73
2022/09/16 03:04:26;;;;;;;3.15;1.58;;;;;;;15.02;96.28;99770.25;4877951;29;20210;-73
2022/09/16 03:06:52;;;;;;;2.72;1.60;;;;;;;14.98;96.83;99775.03;4867716;29;20239;-72
2022/09/16 03:09:22;;;;;;;5.13;1.88;;;;;;;14.91;97.38;99770.19;4864489;29;20211;-72
2022/09/16 03:12:10;;;;;;;3.25;1.98;;;;;;;14.98;96.11;99776.88;4872179;29;20244;-73
2022/09/16 03:15:04;;;;;;;2.97;1.50;;;;;;;14.95;96.17;99771.69;4862486;29;20204;-73
2022/09/16 03:17:47;;;;;;;3.30;2.00;;;;;;;14.92;98.00;99771.91;4784822;29;20268;-72
2022/09/16 03:20:23;;;;;;;2.72;1.60;;;;;;;14.88;100.00;99773.97;4794545;29;20206;-73
2022/09/16 03:22:58;;;;;;;4.75;2.00;;;;;;;14.89;98.72;99773.00;4787934;29;20217;-73
2022/09/16 03:25:44;;;;;;;3.92;2.20;;;;;;;14.74;100.00;99765.97;4793806;29;20216;-72
2022/09/16 03:28:15;;;;;;;5.22;2.20;;;;;;;14.73;100.00;99761.53;4785123;29;20739;-71
2022/09/16 03:30:49;;;;;;;8.43;1.70;;;;;;;14.71;100.00;99758.94;4772767;29;20273;-72
2022/09/16 03:33:24;;;;;;;4.88;2.00;;;;;;;14.71;100.00;99758.94;4791321;29;20213;-73
2022/09/16 03:35:55;;;;;;;3.58;1.80;;;;;;;14.68;100.00;99763.72;4789132;29;20233;-72
2022/09/16 03:38:23;;;;;;;4.15;1.70;;;;;;;14.72;100.00;99767.91;4792362;29;20591;-72
2022/09/16 03:40:50;;;;;;;3.47;1.90;;;;;;;14.77;100.00;99766.63;4796525;29;20205;-73
2022/09/16 03:43:17;;;;;;;5.18;1.98;;;;;;;14.69;100.00;99763.59;4789573;29;20209;-73
2022/09/16 03:45:44;;;;;;;4.95;1.90;;;;;;;14.74;100.00;99769.56;4792754;29;20338;-73
2022/09/16 03:48:13;;;;;;;4.93;2.05;;;;;;;14.72;100.00;99770.63;4780280;29;20606;-72
2022/09/16 03:50:40;;;;;;;7.93;2.00;;;;;;;14.72;100.00;99763.38;4786270;29;20224;-72
2022/09/16 03:53:08;;;;;;;4.85;2.53;;;;;;;14.68;100.00;99766.44;4793275;29;20416;-73
2022/09/16 03:55:35;;;;;;;4.88;2.53;;;;;;;14.73;100.00;99764.25;4855522;29;20223;-72
2022/09/16 03:58:01;;;;;;;4.38;1.50;;;;;;;14.69;100.00;99752.75;4863908;29;20284;-73
2022/09/16 04:00:28;;;;;;;5.55;1.52;;;;;;;14.74;100.00;99761.44;4861326;29;20208;-72
2022/09/16 04:02:55;;;;;;;7.32;1.73;;;;;;;14.57;100.00;99757.22;4863565;29;20213;-72
2022/09/16 04:05:22;;;;;;;2.42;1.65;;;;;;;14.55;100.00;99758.31;4872877;29;20215;-72
2022/09/16 04:07:49;;;;;;;5.95;2.15;;;;;;;14.52;100.00;99762.09;4861788;29;20247;-75
2022/09/16 04:10:17;;;;;;;5.70;2.40;;;;;;;14.50;100.00;99763.19;4863044;29;20236;-72
2022/09/16 04:12:44;;;;;;;5.30;2.08;;;;;;;14.47;100.00;99755.25;4872717;29;20207;-72
2022/09/16 04:15:11;;;;;;;3.97;2.00;;;;;;;14.54;100.00;99759.25;4868600;29;20214;-73
2022/09/16 04:17:38;;;;;;;3.30;1.80;;;;;;;14.50;100.00;99752.34;4865588;29;20225;-74
2022/09/16 04:20:06;;;;;;;6.10;2.42;;;;;;;14.44;100.00;99748.22;4867219;29;20232;-73
2022/09/16 04:22:33;;;;;;;5.22;2.40;;;;;;;14.47;100.00;99749.81;4878286;29;20263;-73
2022/09/16 04:24:59;;;;;;;5.57;1.95;;;;;;;14.51;100.00;99749.50;4863324;29;20210;-72
2022/09/16 04:27:27;;;;;;;5.93;2.20;;;;;;;14.53;100.00;99749.41;4865618;29;20235;-72
2022/09/16 04:29:54;;;;;;;4.15;2.00;;;;;;;14.53;100.00;99741.28;4868762;29;20212;-73
2022/09/16 04:32:21;;;;;;;3.55;2.30;;;;;;;14.42;100.00;99750.16;4866778;29;20335;-72
2022/09/16 04:34:47;;;;;;;3.50;2.30;;;;;;;14.42;100.00;99744.75;4874207;29;20218;-72
2022/09/16 04:37:14;;;;;;;2.97;2.10;;;;;;;14.46;100.00;99739.97;4867034;29;20254;-72
2022/09/16 04:39:40;;;;;;;5.70;2.00;;;;;;;14.45;100.00;99746.38;4878607;29;20219;-73
2022/09/16 04:42:07;;;;;;;5.80;2.78;;;;;;;14.44;100.00;99750.06;4870734;29;20671;-73
2022/09/16 04:44:35;;;;;;;6.15;2.20;;;;;;;14.28;100.00;99753.84;4868293;29;20220;-72
2022/09/16 04:47:01;;;;;;;5.78;2.40;;;;;;;14.16;100.00;99735.78;4859767;29;20237;-71
2022/09/16 04:49:28;;;;;;;8.90;2.47;;;;;;;14.05;100.00;99752.78;4877218;29;20209;-71
2022/09/16 04:51:54;;;;;;;2.90;2.10;;;;;;;14.03;100.00;99754.72;4860123;29;20578;-73
2022/09/16 04:54:22;;;;;;;7.90;2.30;;;;;;;14.05;100.00;99754.63;4857998;29;20214;-72
2022/09/16 04:56:48;;;;;;;5.35;1.90;;;;;;;14.06;100.00;99756.34;4862755;29;20241;-73
2022/09/16 04:59:15;;;;;;;5.55;2.25;;;;;;;14.12;100.00;99742.38;4860835;29;20204;-72
2022/09/16 05:01:44;;;;;;;5.63;2.40;;;;;;;14.13;100.00;99744.09;4864392;29;20210;-72
2022/09/16 05:04:11;;;;;;;8.65;2.20;;;;;;;14.19;100.00;99747.25;4875255;29;20218;-72
2022/09/16 05:06:39;;;;;;;4.00;2.58;;;;;;;14.20;100.00;99758.97;4863052;29;20396;-73
2022/09/16 05:09:07;;;;;;;9.63;3.05;;;;;;;14.12;100.00;99758.63;4866801;29;20240;-72
2022/09/16 05:11:36;;;;;;;5.22;2.33;;;;;;;13.97;100.00;99763.25;4868510;29;20212;-71
2022/09/16 05:14:04;;;;;;;2.60;2.40;;;;;;;13.95;100.00;99765.22;4859830;29;20210;-72
2022/09/16 05:16:31;;;;;;;7.07;1.80;;;;;;;13.96;100.00;99772.38;4864605;29;20238;-73
2022/09/16 05:19:03;;;;;;;9.10;2.13;;;;;;;13.96;100.00;99769.66;4863671;29;20207;-73
2022/09/16 05:21:30;;;;;;;6.20;2.55;;;;;;;13.97;100.00;99765.97;4867899;29;20210;-72
2022/09/16 05:24:01;;;;;;;4.97;2.00;;;;;;;14.02;100.00;99771.97;4864417;29;20216;-73
2022/09/16 05:26:31;;;;;;;4.07;2.40;;;;;;;14.12;100.00;99769.47;4862947;29;20295;-75
2022/09/16 05:29:01;;;;;;;7.45;2.83;;;;;;;14.17;100.00;99759.16;4869550;29;20226;-72
2022/09/16 05:31:30;;;;;;;7.57;2.80;;;;;;;14.19;100.00;99763.50;4864340;29;20209;-73
2022/09/16 05:33:59;;;;;;;6.55;2.80;;;;;;;14.25;100.00;99759.50;4868218;29;20213;-71
2022/09/16 05:36:27;;;;;;;6.28;2.80;;;;;;;14.21;100.00;99751.72;4866353;29;20239;-74
2022/09/16 05:38:54;;;;;;;4.97;2.65;;;;;;;14.27;100.00;99756.66;4867480;23;20238;-73
2022/09/16 05:41:20;;;;;;;6.13;2.90;;;;;;;14.28;100.00;99755.72;4835651;29;20215;-74
2022/09/16 05:43:48;;;;;;;3.47;2.75;;;;;;;14.25;100.00;99759.50;4841524;29;20216;-75
2022/09/16 05:46:18;;;;;;;7.32;4.90;;;;;;;14.23;100.00;99757.88;4842792;29;20207;-73
2022/09/16 05:48:45;;;;;;;8.60;4.30;;;;;;;14.32;100.00;99758.09;4841068;29;20321;-73
2022/09/16 05:51:15;;;;;;;3.63;2.95;;;;;;;14.43;100.00;99762.75;4841495;29;20225;-74
2022/09/16 05:53:41;;;;;;;6.55;3.35;;;;;;;14.47;100.00;99764.28;4841341;29;20218;-73
2022/09/16 05:56:10;;;;;;;7.93;3.28;;;;;;;14.65;100.00;99767.50;4838232;29;20704;-72
2022/09/16 05:58:38;;;;;;;4.00;3.10;;;;;;;14.78;100.00;99771.06;4845755;29;20227;-73
2022/09/16 06:01:06;;;;;;;5.38;2.50;;;;;;;14.99;100.00;99763.22;4840644;29;20214;-72
2022/09/16 06:03:36;;;;;;;7.13;2.75;;;;;;;15.09;100.00;99773.38;4844413;29;20774;-73
2022/09/16 06:06:04;;;;;;;9.30;2.78;;;;;;;15.16;100.00;99761.09;4854912;29;20203;-72
2022/09/16 06:08:34;;;;;;;6.30;2.95;;;;;;;15.19;100.00;99767.13;4856888;29;20236;-74
2022/09/16 06:11:01;;;;;;;5.57;2.55;;;;;;;15.17;100.00;99770.94;4845243;29;20369;-73
2022/09/16 06:13:28;;;;;;;4.85;2.15;;;;;;;15.15;100.00;99773.78;4853531;29;20211;-73
2022/09/16 06:15:55;;;;;;;5.50;2.50;;;;;;;15.18;100.00;99770.84;4857812;29;20208;-73
2022/09/16 06:18:22;;;;;;;4.55;2.92;;;;;;;15.22;100.00;99771.50;4846195;29;20228;-73
2022/09/16 06:20:49;;;;;;;6.10;2.45;;;;;;;15.38;100.00;99765.78;4842327;29;21196;-73
2022/09/16 06:23:16;;;;;;;3.95;2.38;;;;;;;15.35;100.00;99760.56;4844004;29;20222;-73
2022/09/16 06:25:44;;;;;;;6.38;2.35;;;;;;;15.51;100.00;99761.16;4848503;29;20208;-75
2022/09/16 06:28:11;;;;;;;5.72;2.22;;;;;;;15.37;100.00;99764.03;4845167;29;20240;-72
2022/09/16 06:30:38;;;;;;;3.42;2.67;;;;;;;15.31;100.00;99761.75;4850764;29;20216;-73
2022/09/16 06:33:05;;;;;;;4.10;2.15;;;;;;;15.37;100.00;99767.59;4845433;29;20216;-73
2022/09/16 06:35:33;;;;;;;4.40;2.70;;;;;;;15.40;100.00;99766.53;4841571;29;20219;-72
2022/09/16 06:37:59;;;;;;;4.55;2.42;;;;;;;15.69;100.00;99766.13;4849621;29;20224;-72
2022/09/16 06:40:26;;;;;;;5.22;3.00;;;;;;;15.91;100.00;99758.09;4846299;29;20203;-72
2022/09/16 06:42:54;;;;;;;5.28;2.58;;;;;;;15.99;100.00;99766.53;4854755;29;20679;-73
2022/09/16 06:45:21;;;;;;;4.07;2.40;;;;;;;16.05;100.00;99771.50;4861985;29;20215;-72
2022/09/16 06:47:48;;;;;;;5.90;2.58;;;;;;;15.85;100.00;99769.44;4852864;29;20225;-72
2022/09/16 06:50:14;;;;;;;5.43;2.83;;;;;;;16.01;100.00;99764.56;4855789;29;20291;-73
2022/09/16 06:52:41;;;;;;;5.38;2.67;;;;;;;16.11;100.00;99764.69;4862479;29;20682;-72
2022/09/16 06:55:08;;;;;;;6.22;2.20;;;;;;;15.95;100.00;99753.31;4854826;29;20204;-73
2022/09/16 06:57:34;;;;;;;4.68;2.75;;;;;;;16.03;100.00;99757.16;4860565;29;20207;-73
2022/09/16 07:00:03;;;;;;;6.43;2.22;;;;;;;16.31;100.00;99756.84;4853684;29;20223;-73
2022/09/16 07:02:30;;;;;;;5.85;2.45;;;;;;;16.51;99.55;99760.66;4850246;29;20208;-73
2022/09/16 07:04:57;;;;;;;5.13;2.15;;;;;;;16.36;98.93;99757.31;4853024;29;20611;-73
2022/09/16 07:07:23;;;;;;;6.07;2.33;;;;;;;16.53;99.34;99759.56;4851699;29;20258;-73
2022/09/16 07:09:50;;;;;;;5.90;2.45;;;;;;;16.84;98.33;99755.22;4849141;29;20224;-73
2022/09/16 07:12:17;;;;;;;3.47;2.22;;;;;;;17.23;91.10;99766.56;4852925;29;20587;-73
2022/09/16 07:14:43;;;;;;;3.25;2.20;;;;;;;17.33;88.09;99754.91;4844123;29;20685;-72
2022/09/16 07:17:11;;;;;;;6.45;2.17;;;;;;;17.40;85.36;99762.41;4849607;29;20214;-73
2022/09/16 07:19:38;;;;;;;4.70;2.10;;;;;;;17.39;82.34;99757.09;4851461;29;20217;-73
2022/09/16 07:22:04;;;;;;;4.03;1.77;;;;;;;17.63;80.89;99746.84;4844105;29;20201;-73
2022/09/16 07:24:31;;;;;;;4.60;2.20;;;;;;;18.34;74.08;99754.41;4853987;29;20208;-75
2022/09/16 07:26:57;;;;;;;7.45;1.77;;;;;;;19.04;69.84;99762.75;4849960;29;20205;-74
2022/09/16 07:29:24;;;;;;;4.57;1.90;;;;;;;19.19;68.80;99766.81;4845545;29;20713;-73
2022/09/16 07:31:51;;;;;;;9.30;1.80;;;;;;;18.80;67.59;99761.25;4847441;29;20204;-72
2022/09/16 07:34:19;;;;;;;3.28;1.75;;;;;;;18.98;66.55;99764.19;4855416;29;20295;-73
2022/09/16 07:36:48;;;;;;;3.15;1.80;;;;;;;18.87;66.80;99767.88;4878416;29;20278;-72
2022/09/16 07:39:16;;;;;;;3.13;1.50;;;;;;;18.49;67.11;99763.94;4858571;29;20228;-73
2022/09/16 07:41:44;;;;;;;5.50;1.88;;;;;;;19.27;65.86;99763.41;4848283;29;20451;-73
2022/09/16 07:44:12;;;;;;;3.90;1.80;;;;;;;20.53;59.09;99763.31;4844224;29;20220;-74
2022/09/16 07:46:39;;;;;;;6.20;1.80;;;;;;;22.35;53.48;99767.88;4842963;29;20472;-73
2022/09/16 07:49:08;;;;;;;2.67;1.60;;;;;;;23.70;48.80;99766.25;4846101;29;20489;-74
2022/09/16 07:51:36;;;;;;;6.23;1.57;;;;;;;24.41;46.23;99772.97;4843884;29;20485;-73
2022/09/16 07:54:05;;;;;;;3.63;1.90;;;;;;;23.00;48.13;99761.09;4843568;29;20822;-74
2022/09/16 07:56:34;;;;;;;9.20;1.57;;;;;;;21.71;53.13;99777.25;4844473;29;20465;-74
2022/09/16 07:59:01;;;;;;;5.63;1.70;;;;;;;20.73;55.41;99777.81;4846216;29;20482;-72
2022/09/16 08:01:29;;;;;;;4.10;1.60;;;;;;;19.51;59.55;99777.47;4848830;29;20446;-72
2022/09/16 08:03:57;;;;;;;3.97;1.23;;;;;;;18.65;64.56;99770.75;4848404;29;20450;-72
2022/09/16 08:06:25;;;;;;;4.77;2.07;;;;;;;18.52;66.85;99773.72;4844503;29;20469;-73
2022/09/16 08:08:55;;;;;;;5.30;1.80;;;;;;;18.36;67.96;99774.22;4836314;29;20493;-74
2022/09/16 08:11:22;;;;;;;5.90;1.67;;;;;;;18.02;68.09;99771.72;4836238;29;20466;-74
2022/09/16 08:13:49;;;;;;;6.20;2.70;;;;;;;17.55;71.53;99779.31;4845793;29;20456;-74
2022/09/16 08:16:18;;;;;;;2.47;1.57;;;;;;;17.49;72.45;99777.09;4842623;29;20469;-74
2022/09/16 08:18:45;;;;;;;4.43;2.13;;;;;;;17.58;71.96;99781.78;4856857;29;20871;-72
2022/09/16 08:21:14;;;;;;;5.18;1.67;;;;;;;18.62;67.49;99779.22;4847471;29;20209;-73
2022/09/16 08:23:41;;;;;;;3.88;1.83;;;;;;;20.47;58.20;99780.31;4852142;29;20291;-72
2022/09/16 08:26:11;;;;;;;5.47;1.50;;;;;;;21.84;51.28;99781.34;4846438;29;20212;-73
2022/09/16 08:28:40;;;;;;;4.13;2.07;;;;;;;22.76;46.94;99781.00;4843646;29;20585;-74
2022/09/16 08:31:07;;;;;;;3.83;1.50;;;;;;;23.77;44.41;99788.47;4844143;29;20454;-72
2022/09/16 08:33:34;;;;;;;5.13;1.73;;;;;;;24.46;43.20;99783.44;4839765;29;20462;-73
2022/09/16 08:36:03;;;;;;;2.83;1.20;;;;;;;25.10;41.52;99788.97;4839443;29;20453;-74
2022/09/16 08:38:30;;;;;;;4.33;1.27;;;;;;;25.28;40.05;99786.00;4839528;29;20502;-73
2022/09/16 08:41:05;;;;;;;2.57;1.10;;;;;;;25.16;39.68;99780.00;4839135;29;20961;-74
2022/09/16 08:43:38;;;;;;;5.13;1.00;;;;;;;24.03;40.25;99785.53;4841933;29;20468;-73
2022/09/16 08:46:15;;;;;;;2.77;1.10;;;;;;;24.97;39.35;99781.28;4846715;29;20481;-73
2022/09/16 08:48:49;;;;;;;5.90;0.90;;;;;;;25.68;38.41;99789.56;4844250;29;20916;-74
2022/09/16 08:51:19;;;;;;;3.63;1.47;;;;;;;26.14;37.02;99786.81;4843879;29;20469;-73
2022/09/16 08:53:52;;;;;;;3.13;1.00;;;;;;;26.90;35.77;99781.28;4840625;29;21047;-72
2022/09/16 08:56:21;;;;;;;3.90;1.07;;;;;;;26.99;35.34;99785.66;4845582;29;20472;-73
2022/09/16 08:58:54;;;;;;;3.27;1.07;;;;;;;28.30;34.24;99785.69;4848445;29;20485;-73
2022/09/16 09:01:29;;;;;;;7.73;1.60;;;;;;;29.57;32.59;99785.44;4853878;29;20471;-74
2022/09/16 09:03:56;;;;;;;1.40;1.10;;;;;;;29.86;32.05;99789.81;4849101;29;20469;-73
2022/09/16 09:06:48;;;;;;;4.67;1.10;;;;;;;28.99;32.95;99776.59;4843246;29;20471;-72
2022/09/16 09:09:27;;;;;;;4.63;1.13;;;;;;;28.32;33.29;99778.91;4840572;29;20509;-73
2022/09/16 09:12:04;;;;;;;2.77;1.33;;;;;;;28.37;32.91;99779.13;4844422;29;20467;-73
2022/09/16 09:14:42;;;;;;;6.27;1.20;;;;;;;28.91;32.38;99780.41;4841409;29;21009;-73
2022/09/16 09:17:34;;;;;;;2.60;1.10;;;;;;;28.92;31.51;99781.25;4842304;29;20457;-73
2022/09/16 09:20:13;;;;;;;1.93;0.97;;;;;;;29.36;31.00;99780.88;4839085;29;20576;-73
2022/09/16 09:22:59;;;;;;;1.80;0.80;;;;;;;28.69;31.05;99774.94;4837644;29;20485;-73
2022/09/16 09:25:34;;;;;;;2.37;1.10;;;;;;;28.89;31.47;99766.75;4841476;29;20989;-72
2022/09/16 09:28:22;;;;;;;2.23;1.00;;;;;;;28.19;32.12;99762.16;4842057;29;20480;-72
2022/09/16 09:31:03;;;;;;;3.90;0.83;;;;;;;25.75;36.09;99765.72;4844681;29;21001;-72
2022/09/16 09:33:40;;;;;;;2.43;1.00;;;;;;;24.57;38.33;99760.25;4847326;29;20492;-72
2022/09/16 09:36:27;;;;;;;2.70;0.83;;;;;;;23.41;40.31;99759.31;4850734;29;20457;-75
2022/09/16 09:39:06;;;;;;;4.87;1.10;;;;;;;22.86;41.58;99759.75;4844379;29;20496;-71
2022/09/16 09:41:39;;;;;;;4.40;1.20;;;;;;;23.00;41.25;99761.94;4847689;29;20473;-72
2022/09/16 09:44:31;;;;;;;2.30;0.90;;;;;;;23.65;38.93;99761.25;4842051;29;20496;-72
2022/09/16 09:47:03;;;;;;;6.70;1.17;;;;;;;24.33;38.28;99749.09;4846010;29;20975;-73
2022/09/16 09:49:33;;;;;;;2.63;0.90;;;;;;;24.31;38.30;99758.56;4843096;29;21113;-72
2022/09/16 09:52:06;;;;;;;2.83;0.90;;;;;;;24.04;38.72;99762.53;4839932;29;20457;-73
2022/09/16 09:54:35;;;;;;;2.37;1.03;;;;;;;23.54;40.07;99753.34;4845798;29;20999;-72
2022/09/16 09:57:05;;;;;;;6.10;1.20;;;;;;;22.88;40.81;99742.13;4841125;29;20540;-73
2022/09/16 09:59:38;;;;;;;2.23;1.17;;;;;;;22.51;40.68;99747.94;4844844;29;20870;-72
2022/09/16 10:02:14;;;;;;;1.60;1.00;;;;;;;21.59;42.92;99750.09;4857958;29;20478;-71
2022/09/16 10:04:41;;;;;;;4.53;1.13;;;;;;;21.67;43.02;99763.03;4841846;29;20476;-72
2022/09/16 10:07:09;;;;;;;4.17;1.30;;;;;;;20.89;44.78;99747.06;4851746;29;21499;-77
2022/09/16 10:09:37;;;;;;;1.87;0.80;;;;;;;20.48;45.32;99745.63;4841144;29;20493;-72
2022/09/16 10:12:04;;;;;;;3.67;1.13;;;;;;;19.99;46.96;99745.75;4856415;29;21009;-72
2022/09/16 10:14:33;;;;;;;3.97;1.27;;;;;;;19.76;48.20;99743.34;4860070;29;20465;-72
2022/09/16 10:17:01;;;;;;;3.03;1.20;;;;;;;19.32;49.20;99741.97;4862844;29;20472;-72
2022/09/16 10:19:31;;;;;;;2.73;1.20;;;;;;;19.30;49.61;99750.31;4849062;29;20481;-73
2022/09/16 10:22:10;;;;;;;4.97;1.50;;;;;;;18.76;51.87;99746.13;4844185;29;20485;-75
2022/09/16 10:24:40;;;;;;;3.00;1.13;;;;;;;18.51;53.29;99731.09;4851338;29;20496;-72
2022/09/16 10:27:20;;;;;;;2.13;1.00;;;;;;;19.01;52.93;99741.19;4856448;29;20461;-72
2022/09/16 10:29:46;;;;;;;3.60;1.47;;;;;;;19.29;52.06;99743.13;4852135;29;20503;-75
2022/09/16 10:32:17;;;;;;;2.77;1.37;;;;;;;19.40;51.40;99744.84;4853468;29;20496;-74
2022/09/16 10:34:46;;;;;;;4.40;1.57;;;;;;;19.76;50.42;99739.72;4854402;29;20453;-73
2022/09/16 10:37:17;;;;;;;8.60;1.83;;;;;;;20.23;48.90;99750.72;4849365;29;20469;-72
2022/09/16 10:39:52;;;;;;;3.57;1.47;;;;;;;20.17;49.08;99749.47;4844416;29;20499;-73
2022/09/16 10:42:21;;;;;;;2.90;1.20;;;;;;;22.07;45.60;99750.69;4838275;29;20461;-72
2022/09/16 10:44:50;;;;;;;3.80;1.13;;;;;;;24.82;39.66;99752.75;4841096;29;20468;-72
2022/09/16 10:47:20;;;;;;;9.40;4.80;;;;;;;26.05;37.95;99754.81;4845652;29;20517;-72
2022/09/16 10:49:50;;;;;;;7.00;2.23;;;;;;;25.90;37.67;99752.88;4845126;29;20584;-72
2022/09/16 10:52:18;;;;;;;5.00;1.40;;;;;;;25.61;38.56;99759.09;4846342;29;20495;-72
2022/09/16 10:54:45;;;;;;;5.03;1.23;;;;;;;27.52;35.67;99746.78;4846102;29;20488;-72
2022/09/16 10:57:24;;;;;;;2.60;1.23;;;;;;;24.82;38.66;99747.25;4846358;29;20960;-72
2022/09/16 11:00:11;;;;;;;3.70;0.87;;;;;;;24.03;40.47;99733.28;4849974;29;20842;-74
2022/09/16 11:03:25;;;;;;;2.97;1.10;;;;;;;22.86;41.70;99732.31;4848701;29;20509;-72
2022/09/16 11:06:05;;;;;;;2.77;1.13;;;;;;;21.26;44.61;99740.66;4790416;30;20923;-75
2022/09/16 11:08:43;;;;;;;3.10;1.20;;;;;;;20.78;46.09;99744.50;4788434;29;21322;-72
2022/09/16 11:11:19;;;;;;;3.57;1.23;;;;;;;19.88;48.17;99744.03;4784687;29;20484;-74
2022/09/16 11:13:53;;;;;;;2.57;1.30;;;;;;;19.02;51.19;99742.94;4788865;29;20460;-72
2022/09/16 11:16:47;;;;;;;2.70;1.30;;;;;;;18.84;52.75;99742.75;4784841;29;21003;-72
2022/09/16 11:19:23;;;;;;;4.40;1.10;;;;;;;19.17;52.43;99742.41;4792089;29;20525;-72
2022/09/16 11:22:04;;;;;;;4.10;1.30;;;;;;;20.92;47.94;99752.25;4799363;29;20461;-74
2022/09/16 11:24:58;;;;;;;5.57;1.57;;;;;;;23.48;42.63;99743.88;4789048;30;20468;-73
2022/09/16 11:27:38;;;;;;;1.93;1.10;;;;;;;26.32;37.46;99748.72;4796956;29;20475;-73
2022/09/16 11:30:11;;;;;;;3.10;0.87;;;;;;;29.07;33.68;99754.28;4781424;29;20498;-73
2022/09/16 11:33:09;;;;;;;2.10;0.80;;;;;;;28.58;33.74;99739.47;4803375;29;20463;-72
2022/09/16 11:35:47;;;;;;;2.10;1.07;;;;;;;24.42;38.33;99738.03;4810973;29;20436;-72
2022/09/16 11:38:24;;;;;;;1.53;0.80;;;;;;;22.63;43.03;99743.88;4844908;29;20819;-72
2022/09/16 11:41:00;;;;;;;2.13;0.70;;;;;;;22.09;44.11;99737.66;4857306;29;20456;-73
2022/09/16 11:43:48;;;;;;;2.27;1.00;;;;;;;22.56;43.44;99736.47;4841845;29;20456;-72
2022/09/16 11:46:22;;;;;;;2.83;1.03;;;;;;;23.18;42.20;99736.22;4854435;29;20989;-72
2022/09/16 11:49:03;;;;;;;2.90;0.90;;;;;;;24.76;39.60;99733.19;4848795;29;20501;-72